Simcha — PE7688 — position and weather

sailwx.info

Track history (hours):
 
Tides and Currents Weather Stations Pressure Air Temp Water Temp Dewpoint Dewpoint Depression Visibility Wind Speed Wind Dir Waves Ship Positions

Simcha

Last reported at 2015-Aug-30 11:33 UTC. Time now 2015-Aug-30 11:56 UTC.
Position N 52°15' E 006°47'.

Length 110 m.

Type: Ship. MMSI: 244780014.

Date/timePositionNaut miles runAvg speedWind from/ knotsBaromVisibWave heightAir tempDewpointWater temp
2015-Aug-30 11:33N 52°15' E 006°47'6 4.2
2015-Aug-30 10:09N 52°14' E 006°38'9 5.9
2015-Aug-30 08:33N 52°10' E 006°24'58 2.4
2015-Aug-29 08:32N 51°14' E 006°44'3 0.1
2015-Aug-28 04:34N 51°11' E 006°47'1 1.4
2015-Aug-28 03:34N 51°11' E 006°44'0 0.0
2015-Aug-28 02:34N 51°11' E 006°44'0 0.0
2015-Aug-28 01:34N 51°11' E 006°44'0 0.0
2015-Aug-28 00:34N 51°11' E 006°44'0 0.0
2015-Aug-27 23:34N 51°11' E 006°44'0 0.0
2015-Aug-27 22:34N 51°11' E 006°44'0 0.0
2015-Aug-27 21:34N 51°11' E 006°44'0 0.0
2015-Aug-27 20:34N 51°11' E 006°44'2 2.4
2015-Aug-27 19:33N 51°13' E 006°43'2 2.2
2015-Aug-27 18:34N 51°15' E 006°45'57 1.8
2015-Aug-26 11:32N 52°10' E 006°20'17 4.1
2015-Aug-26 07:32N 52°15' E 006°46'1 1.1
2015-Aug-26 06:33N 52°15' E 006°48'0 0.0
2015-Aug-26 05:33N 52°15' E 006°48'0 0.0
2015-Aug-26 04:33N 52°15' E 006°48'0 0.0
2015-Aug-26 03:33N 52°15' E 006°48'0 0.0
2015-Aug-26 02:32N 52°15' E 006°48'0 0.0
2015-Aug-26 01:33N 52°15' E 006°48'0 0.0
2015-Aug-26 00:31N 52°15' E 006°48'0 0.0
2015-Aug-25 23:33N 52°15' E 006°48'0 0.0
2015-Aug-25 22:32N 52°15' E 006°48'0 0.1
2015-Aug-25 21:31N 52°15' E 006°48'0 0.0
2015-Aug-25 20:33N 52°15' E 006°48'0 0.0
2015-Aug-25 19:33N 52°15' E 006°48'2 1.9
2015-Aug-25 18:33N 52°15' E 006°45'13 5.2
2015-Aug-25 16:07N 52°10' E 006°26'3 6.1
2015-Aug-25 15:33N 52°10' E 006°20'  
2015-Aug-22 12:04N 52°10' E 006°20'3 5.4
2015-Aug-22 11:33N 52°10' E 006°24'13 4.1
2015-Aug-22 08:19N 52°15' E 006°44'2 2.3
2015-Aug-22 07:32N 52°15' E 006°47'0 0.0
2015-Aug-22 06:33N 52°15' E 006°47'0 0.0
2015-Aug-22 05:33N 52°15' E 006°47'0 0.0
2015-Aug-22 04:33N 52°15' E 006°47'0 0.0
2015-Aug-22 03:32N 52°15' E 006°47'0 0.0
2015-Aug-22 02:33N 52°15' E 006°47'0 0.0
2015-Aug-22 01:33N 52°15' E 006°47'0 0.0
2015-Aug-22 00:33N 52°15' E 006°47'0 0.0
2015-Aug-21 23:32N 52°15' E 006°47'0 0.0
2015-Aug-21 22:32N 52°15' E 006°47'0 0.0
2015-Aug-21 21:33N 52°15' E 006°47'0 0.0
2015-Aug-21 20:33N 52°15' E 006°47'1 0.6
2015-Aug-21 19:32N 52°15' E 006°48'0 0.0
2015-Aug-21 18:32N 52°15' E 006°48'0 0.0
2015-Aug-21 17:33N 52°15' E 006°48'1 0.7
2015-Aug-21 16:33N 52°15' E 006°47'0 0.0
2015-Aug-21 15:33N 52°15' E 006°47'0 0.0
2015-Aug-21 14:32N 52°15' E 006°47'0 0.0
2015-Aug-21 13:32N 52°15' E 006°47'0 0.0
2015-Aug-21 12:32N 52°15' E 006°47'0 0.0
2015-Aug-21 11:33N 52°15' E 006°47'0 0.2
2015-Aug-21 10:33N 52°15' E 006°46'7 3.3
2015-Aug-21 08:33N 52°14' E 006°36'7 5.3
2015-Aug-21 07:17N 52°10' E 006°26'5 6.1
2015-Aug-21 06:32N 52°10' E 006°19'  
Track history (hours):
 
Tides and Currents Weather Stations Pressure Air Temp Water Temp Dewpoint Dewpoint Depression Visibility Wind Speed Wind Dir Waves Ship Positions

Simcha

Last reported at 2015-Aug-30 11:33 UTC. Time now 2015-Aug-30 11:56 UTC.
Position N 52°15' E 006°47'.

Length 110 m.

Type: Ship. MMSI: 244780014.

Date/timePositionNaut miles runAvg speedWind from/ knotsBaromVisibWave heightAir tempDewpointWater temp
2015-Aug-30 11:33N 52°15' E 006°47'6 4.2
2015-Aug-30 10:09N 52°14' E 006°38'9 5.9
2015-Aug-30 08:33N 52°10' E 006°24'58 2.4
2015-Aug-29 08:32N 51°14' E 006°44'3 0.1
2015-Aug-28 04:34N 51°11' E 006°47'1 1.4
2015-Aug-28 03:34N 51°11' E 006°44'0 0.0
2015-Aug-28 02:34N 51°11' E 006°44'0 0.0
2015-Aug-28 01:34N 51°11' E 006°44'0 0.0
2015-Aug-28 00:34N 51°11' E 006°44'0 0.0
2015-Aug-27 23:34N 51°11' E 006°44'0 0.0
2015-Aug-27 22:34N 51°11' E 006°44'0 0.0
2015-Aug-27 21:34N 51°11' E 006°44'0 0.0
2015-Aug-27 20:34N 51°11' E 006°44'2 2.4
2015-Aug-27 19:33N 51°13' E 006°43'2 2.2
2015-Aug-27 18:34N 51°15' E 006°45'57 1.8
2015-Aug-26 11:32N 52°10' E 006°20'17 4.1
2015-Aug-26 07:32N 52°15' E 006°46'1 1.1
2015-Aug-26 06:33N 52°15' E 006°48'0 0.0
2015-Aug-26 05:33N 52°15' E 006°48'0 0.0
2015-Aug-26 04:33N 52°15' E 006°48'0 0.0
2015-Aug-26 03:33N 52°15' E 006°48'0 0.0
2015-Aug-26 02:32N 52°15' E 006°48'0 0.0
2015-Aug-26 01:33N 52°15' E 006°48'0 0.0
2015-Aug-26 00:31N 52°15' E 006°48'0 0.0
2015-Aug-25 23:33N 52°15' E 006°48'0 0.0
2015-Aug-25 22:32N 52°15' E 006°48'0 0.1
2015-Aug-25 21:31N 52°15' E 006°48'0 0.0
2015-Aug-25 20:33N 52°15' E 006°48'0 0.0
2015-Aug-25 19:33N 52°15' E 006°48'2 1.9
2015-Aug-25 18:33N 52°15' E 006°45'13 5.2
2015-Aug-25 16:07N 52°10' E 006°26'3 6.1
2015-Aug-25 15:33N 52°10' E 006°20'  
2015-Aug-22 12:04N 52°10' E 006°20'3 5.4
2015-Aug-22 11:33N 52°10' E 006°24'13 4.1
2015-Aug-22 08:19N 52°15' E 006°44'2 2.3
2015-Aug-22 07:32N 52°15' E 006°47'0 0.0
2015-Aug-22 06:33N 52°15' E 006°47'0 0.0
2015-Aug-22 05:33N 52°15' E 006°47'0 0.0
2015-Aug-22 04:33N 52°15' E 006°47'0 0.0
2015-Aug-22 03:32N 52°15' E 006°47'0 0.0
2015-Aug-22 02:33N 52°15' E 006°47'0 0.0
2015-Aug-22 01:33N 52°15' E 006°47'0 0.0
2015-Aug-22 00:33N 52°15' E 006°47'0 0.0
2015-Aug-21 23:32N 52°15' E 006°47'0 0.0
2015-Aug-21 22:32N 52°15' E 006°47'0 0.0
2015-Aug-21 21:33N 52°15' E 006°47'0 0.0
2015-Aug-21 20:33N 52°15' E 006°47'1 0.6
2015-Aug-21 19:32N 52°15' E 006°48'0 0.0
2015-Aug-21 18:32N 52°15' E 006°48'0 0.0
2015-Aug-21 17:33N 52°15' E 006°48'1 0.7
2015-Aug-21 16:33N 52°15' E 006°47'0 0.0
2015-Aug-21 15:33N 52°15' E 006°47'0 0.0
2015-Aug-21 14:32N 52°15' E 006°47'0 0.0
2015-Aug-21 13:32N 52°15' E 006°47'0 0.0
2015-Aug-21 12:32N 52°15' E 006°47'0 0.0
2015-Aug-21 11:33N 52°15' E 006°47'0 0.2
2015-Aug-21 10:33N 52°15' E 006°46'7 3.3
2015-Aug-21 08:33N 52°14' E 006°36'7 5.3
2015-Aug-21 07:17N 52°10' E 006°26'5 6.1
2015-Aug-21 06:32N 52°10' E 006°19'  

Dump ship's entire track history